Time;durP1;ratioP1;P1;durP2;ratioP2;P2;SDS_P1;SDS_P2;PMS_P1;PMS_P2;Temp;Humidity;BMP_temperature;BMP_pressure;BME280_temperature;BME280_humidity;BME280_pressure;Samples;Min_cycle;Max_cycle;Signal;HPM_P1;HPM_P2
2023/12/20 00:00:03;;;;;;;21.67;13.35;;;;;;;8.18;70.10;101083.13;5067639;28;20040;-75
2023/12/20 00:02:28;;;;;;;28.33;13.18;;;;;;;8.23;70.34;101100.63;5067940;28;20051;-74
2023/12/20 00:04:54;;;;;;;25.17;12.57;;;;;;;8.24;69.66;101098.81;5067284;28;20040;-75
2023/12/20 00:07:19;;;;;;;31.10;11.18;;;;;;;8.23;69.96;101081.88;5067992;28;20071;-75
2023/12/20 00:09:45;;;;;;;20.23;10.90;;;;;;;8.31;69.75;101094.81;5067528;28;20056;-76
2023/12/20 00:12:10;;;;;;;31.85;13.43;;;;;;;8.32;69.73;101096.53;5067337;28;20499;-74
2023/12/20 00:14:36;;;;;;;37.28;14.82;;;;;;;8.28;70.11;101083.44;5067492;28;20193;-76
2023/12/20 00:17:01;;;;;;;34.58;14.35;;;;;;;8.28;70.26;101089.66;5067878;28;20495;-74
2023/12/20 00:19:27;;;;;;;32.20;13.65;;;;;;;8.32;70.34;101084.97;5054885;28;20048;-74
2023/12/20 00:21:52;;;;;;;35.35;16.40;;;;;;;8.26;70.00;101088.84;5050437;28;20576;-74
2023/12/20 00:24:18;;;;;;;35.45;18.65;;;;;;;8.22;70.73;101073.94;5050642;28;20511;-74
2023/12/20 00:26:43;;;;;;;44.55;18.08;;;;;;;8.22;71.13;101061.38;5050170;28;20056;-75
2023/12/20 00:29:09;;;;;;;41.05;16.08;;;;;;;8.17;70.53;101052.78;5050679;28;20457;-74
2023/12/20 00:31:34;;;;;;;45.40;15.52;;;;;;;8.18;70.08;101075.09;5050426;28;20075;-76
2023/12/20 00:33:59;;;;;;;27.48;17.38;;;;;;;8.21;70.02;101058.81;5050288;28;20040;-75
2023/12/20 00:36:25;;;;;;;32.17;16.52;;;;;;;8.26;70.15;101054.00;5050629;28;20021;-76
2023/12/20 00:38:51;;;;;;;32.53;17.60;;;;;;;8.17;70.20;101028.69;5050314;28;20056;-73
2023/12/20 00:41:17;;;;;;;70.43;23.55;;;;;;;8.30;70.59;101055.56;5050542;28;20465;-75
2023/12/20 00:43:42;;;;;;;47.78;19.77;;;;;;;8.19;70.52;101037.47;5050242;28;20060;-74
2023/12/20 00:46:08;;;;;;;36.92;18.90;;;;;;;8.15;70.61;101045.81;5051045;28;20033;-76
2023/12/20 00:48:33;;;;;;;47.17;19.30;;;;;;;8.26;70.85;101054.00;5052762;28;20713;-73
2023/12/20 00:50:59;;;;;;;51.53;19.70;;;;;;;8.33;71.28;101047.34;5051042;28;20117;-74
2023/12/20 00:53:24;;;;;;;67.90;21.27;;;;;;;8.31;71.00;101040.38;5050688;28;20055;-75
2023/12/20 00:55:50;;;;;;;63.42;20.25;;;;;;;8.32;70.40;101055.50;5049970;28;20106;-74
2023/12/20 00:58:16;;;;;;;50.00;18.35;;;;;;;8.28;70.43;101048.59;5050042;28;20029;-73
2023/12/20 01:00:42;;;;;;;46.03;17.80;;;;;;;8.21;70.06;101043.59;5049794;28;20327;-74
2023/12/20 01:03:08;;;;;;;32.63;18.63;;;;;;;8.21;70.00;101034.72;5049903;28;20032;-74
2023/12/20 01:05:33;;;;;;;26.08;15.43;;;;;;;8.13;69.97;101029.84;5050222;28;20481;-74
2023/12/20 01:07:59;;;;;;;44.47;19.23;;;;;;;8.12;70.08;101040.66;5050049;28;20032;-75
2023/12/20 01:10:28;;;;;;;43.65;19.67;;;;;;;7.93;69.43;101018.69;5048777;28;20515;-77
2023/12/20 01:12:53;;;;;;;40.58;18.35;;;;;;;8.07;70.56;101034.75;5050224;28;20044;-75
2023/12/20 01:15:19;;;;;;;39.90;16.60;;;;;;;8.04;70.31;101032.28;5068965;28;20515;-75
2023/12/20 01:17:45;;;;;;;35.42;16.80;;;;;;;7.88;70.26;101004.75;5069864;28;20063;-75
2023/12/20 01:20:10;;;;;;;42.38;16.38;;;;;;;8.00;70.05;101028.06;5069255;28;20489;-75
2023/12/20 01:22:36;;;;;;;39.08;17.42;;;;;;;8.08;70.00;101031.09;5069298;28;20063;-74
2023/12/20 01:25:02;;;;;;;34.63;18.60;;;;;;;8.07;69.83;101016.00;5067793;28;20053;-76
2023/12/20 01:27:28;;;;;;;29.25;16.52;;;;;;;8.06;69.61;101014.28;5066979;28;20660;-75
2023/12/20 01:29:54;;;;;;;30.90;15.82;;;;;;;8.02;69.79;101012.75;5069564;28;20035;-74
2023/12/20 01:32:19;;;;;;;31.70;17.30;;;;;;;8.07;69.44;101021.34;5069707;28;20025;-74
2023/12/20 01:34:45;;;;;;;37.05;17.48;;;;;;;8.06;69.52;101011.59;5069440;28;20454;-74
2023/12/20 01:37:10;;;;;;;29.23;14.80;;;;;;;7.96;69.49;101005.09;5070941;28;20476;-74
2023/12/20 01:39:36;;;;;;;30.30;13.48;;;;;;;7.97;68.87;101006.84;5064427;28;20366;-77
2023/12/20 01:42:02;;;;;;;24.35;13.85;;;;;;;7.98;69.50;101003.22;5049075;28;20154;-74
2023/12/20 01:44:27;;;;;;;26.77;12.95;;;;;;;7.94;69.95;100977.56;5048173;28;20040;-76
2023/12/20 01:46:53;;;;;;;62.78;19.05;;;;;;;7.90;69.25;100992.09;5048750;28;20036;-74
2023/12/20 01:49:19;;;;;;;75.30;16.58;;;;;;;7.83;69.61;100980.09;5048337;28;20025;-74
2023/12/20 01:51:45;;;;;;;23.13;13.43;;;;;;;7.78;69.60;100966.13;5048967;28;20040;-74
2023/12/20 01:54:11;;;;;;;34.78;14.57;;;;;;;7.90;69.10;100968.00;5048343;28;20532;-77
2023/12/20 01:56:38;;;;;;;27.42;12.07;;;;;;;7.90;69.41;100955.47;5048860;28;20029;-75
2023/12/20 01:59:04;;;;;;;26.60;13.13;;;;;;;7.92;69.07;100958.91;5048609;28;20032;-74
2023/12/20 02:01:30;;;;;;;25.45;12.55;;;;;;;7.89;68.07;100948.41;5048503;28;20018;-74
2023/12/20 02:03:56;;;;;;;39.25;13.13;;;;;;;7.81;68.35;100949.84;5048632;28;20076;-74
2023/12/20 02:06:23;;;;;;;24.83;11.40;;;;;;;7.61;68.47;100916.38;5048719;28;20024;-77
2023/12/20 02:08:50;;;;;;;21.05;10.75;;;;;;;7.76;68.92;100941.28;5048074;28;20033;-75
2023/12/20 02:11:15;;;;;;;28.90;11.77;;;;;;;7.80;69.17;100937.44;5047930;28;20116;-76
2023/12/20 02:13:41;;;;;;;34.33;9.35;;;;;;;7.79;68.89;100941.06;5048544;28;20119;-73
2023/12/20 02:16:07;;;;;;;19.95;9.75;;;;;;;7.73;68.13;100920.06;5048339;28;20032;-74
2023/12/20 02:18:33;;;;;;;53.42;23.85;;;;;;;7.68;68.42;100907.81;5048136;28;20435;-74
2023/12/20 02:20:58;;;;;;;16.63;9.90;;;;;;;7.73;68.38;100914.69;5048306;28;20167;-73
2023/12/20 02:23:24;;;;;;;20.52;11.15;;;;;;;7.78;68.33;100907.22;5029383;28;20244;-74
2023/12/20 02:25:49;;;;;;;43.35;18.55;;;;;;;7.72;68.58;100900.44;5048454;28;20053;-73
2023/12/20 02:28:15;;;;;;;25.05;10.80;;;;;;;7.58;68.62;100885.28;5050786;28;20413;-74
2023/12/20 02:30:41;;;;;;;15.63;10.07;;;;;;;7.75;68.07;100907.41;5051369;28;20029;-75
2023/12/20 02:33:12;;;;;;;25.17;10.57;;;;;;;7.73;68.18;100902.19;5046811;28;20033;-77
2023/12/20 02:35:37;;;;;;;14.10;8.77;;;;;;;7.66;68.71;100890.16;5047830;28;20029;-75
2023/12/20 02:38:03;;;;;;;13.93;8.77;;;;;;;7.65;68.41;100891.97;5047732;28;20036;-75
2023/12/20 02:40:29;;;;;;;30.50;10.10;;;;;;;7.56;68.66;100871.16;5047704;28;20122;-74
2023/12/20 02:42:54;;;;;;;21.02;10.80;;;;;;;7.66;68.40;100874.09;5048269;28;20025;-75
2023/12/20 02:45:20;;;;;;;51.60;26.00;;;;;;;7.59;68.25;100868.28;5047950;28;20527;-74
2023/12/20 02:47:45;;;;;;;20.40;8.80;;;;;;;7.60;68.04;100887.88;5047544;28;20025;-75
2023/12/20 02:50:11;;;;;;;21.02;9.75;;;;;;;7.59;68.77;100887.00;5047777;28;20091;-75
2023/12/20 02:52:36;;;;;;;21.67;9.93;;;;;;;7.29;68.72;100846.19;5047885;28;20916;-73
2023/12/20 02:55:02;;;;;;;19.77;9.38;;;;;;;7.37;68.66;100851.88;5047023;28;20037;-74
2023/12/20 02:57:27;;;;;;;13.02;8.95;;;;;;;7.61;68.75;100887.75;5047378;28;20814;-75
2023/12/20 02:59:53;;;;;;;25.05;9.13;;;;;;;7.60;69.13;100878.03;5047260;28;20036;-75
2023/12/20 03:02:19;;;;;;;26.02;9.32;;;;;;;7.61;68.87;100879.72;5047613;28;20037;-73
2023/12/20 03:04:45;;;;;;;24.55;9.60;;;;;;;7.54;68.17;100888.28;5046658;28;20485;-75
2023/12/20 03:07:11;;;;;;;25.38;12.40;;;;;;;7.40;68.47;100865.06;5048347;28;20107;-74
2023/12/20 03:09:37;;;;;;;32.63;9.00;;;;;;;7.53;68.43;100878.50;5048324;28;20029;-73
2023/12/20 03:12:03;;;;;;;40.65;11.38;;;;;;;7.50;68.59;100882.25;5047764;28;20037;-75
2023/12/20 03:14:29;;;;;;;32.67;10.13;;;;;;;7.47;68.74;100877.09;5047328;28;20040;-76
2023/12/20 03:16:54;;;;;;;29.42;10.38;;;;;;;7.53;68.56;100892.75;5046700;28;20029;-75
2023/12/20 03:19:20;;;;;;;28.23;10.30;;;;;;;7.52;68.49;100884.84;5051198;28;20029;-78
2023/12/20 03:21:45;;;;;;;44.17;21.17;;;;;;;7.38;68.35;100877.69;5050077;28;20025;-76
2023/12/20 03:24:11;;;;;;;38.10;12.85;;;;;;;7.27;68.87;100874.84;5047715;28;20051;-74
2023/12/20 03:26:36;;;;;;;35.45;10.85;;;;;;;7.29;69.12;100885.44;5046853;28;20048;-75
2023/12/20 03:29:02;;;;;;;14.65;9.60;;;;;;;7.34;69.35;100880.66;5047322;28;20503;-74
2023/12/20 03:31:27;;;;;;;32.40;9.38;;;;;;;7.28;69.43;100860.50;5047054;28;20033;-75
2023/12/20 03:33:53;;;;;;;27.40;9.85;;;;;;;7.41;69.30;100877.50;5048104;28;20059;-77
2023/12/20 03:36:20;;;;;;;21.58;8.63;;;;;;;7.44;69.08;100879.97;5050483;28;20163;-74
2023/12/20 03:38:45;;;;;;;41.95;10.25;;;;;;;7.40;69.01;100859.72;5050852;28;20031;-76
2023/12/20 03:41:11;;;;;;;36.83;9.98;;;;;;;7.52;68.37;100872.28;5065165;28;20045;-74
2023/12/20 03:43:37;;;;;;;30.65;11.35;;;;;;;7.37;68.54;100865.25;5051068;28;20470;-74
2023/12/20 03:46:03;;;;;;;31.42;13.50;;;;;;;7.08;68.38;100820.81;5050909;28;20025;-74
2023/12/20 03:48:30;;;;;;;26.70;11.27;;;;;;;7.34;68.72;100865.44;5050936;28;20044;-74
2023/12/20 03:50:57;;;;;;;81.63;37.22;;;;;;;7.33;69.01;100869.09;5050598;28;20102;-74
2023/12/20 03:53:22;;;;;;;31.67;13.30;;;;;;;7.34;68.70;100857.44;5051303;28;20029;-74
2023/12/20 03:55:48;;;;;;;29.73;10.77;;;;;;;7.38;68.96;100869.66;5050115;28;20040;-74
2023/12/20 03:58:13;;;;;;;35.35;11.52;;;;;;;7.39;68.93;100870.53;5050344;28;20029;-75
2023/12/20 04:00:39;;;;;;;35.53;11.68;;;;;;;7.39;68.51;100862.50;5050049;28;20028;-74
2023/12/20 04:03:04;;;;;;;30.30;10.27;;;;;;;7.36;68.71;100857.34;5051302;28;20028;-74
2023/12/20 04:05:30;;;;;;;26.88;9.85;;;;;;;7.35;68.56;100855.63;5050629;28;20029;-76
2023/12/20 04:07:55;;;;;;;15.65;9.15;;;;;;;7.31;68.08;100857.63;5051907;28;20024;-75
2023/12/20 04:10:21;;;;;;;21.33;9.30;;;;;;;7.28;68.46;100844.44;5054637;28;20035;-76
2023/12/20 04:12:47;;;;;;;79.43;36.70;;;;;;;7.13;68.54;100845.44;5051709;28;20488;-75
2023/12/20 04:15:12;;;;;;;28.30;15.48;;;;;;;7.12;68.83;100849.91;5047441;28;20032;-77
2023/12/20 04:17:38;;;;;;;59.05;12.27;;;;;;;7.12;69.31;100831.19;5049787;28;20082;-75
2023/12/20 04:20:04;;;;;;;28.58;15.15;;;;;;;7.06;69.26;100834.25;5050419;28;20036;-76
2023/12/20 04:22:29;;;;;;;46.80;16.27;;;;;;;7.02;68.98;100837.25;5049716;28;20029;-76
2023/12/20 04:24:55;;;;;;;44.03;15.25;;;;;;;6.93;69.47;100829.81;5051216;28;20029;-78
2023/12/20 04:27:20;;;;;;;35.83;13.75;;;;;;;6.91;69.72;100834.41;5049978;28;20025;-75
2023/12/20 04:29:46;;;;;;;27.38;12.68;;;;;;;6.75;70.03;100828.28;5049806;28;20546;-75
2023/12/20 04:32:11;;;;;;;45.75;15.25;;;;;;;6.74;70.12;100826.56;5049614;28;20103;-75
2023/12/20 04:34:37;;;;;;;41.65;14.98;;;;;;;6.54;70.18;100801.09;5049904;28;20029;-77
2023/12/20 04:37:03;;;;;;;65.90;26.33;;;;;;;6.72;70.61;100836.50;5063804;28;20028;-76
2023/12/20 04:39:31;;;;;;;65.68;21.10;;;;;;;6.71;71.08;100840.09;5069275;28;20032;-76
2023/12/20 04:41:58;;;;;;;37.42;15.00;;;;;;;6.73;70.86;100835.56;5068343;28;20024;-75
2023/12/20 04:44:24;;;;;;;42.25;12.32;;;;;;;6.58;70.93;100810.59;5050432;28;20028;-75
2023/12/20 04:46:50;;;;;;;50.65;12.68;;;;;;;6.59;71.15;100817.69;5049858;28;20032;-75
2023/12/20 04:49:15;;;;;;;58.40;16.60;;;;;;;6.54;71.76;100809.94;5051292;28;20721;-77
2023/12/20 04:51:41;;;;;;;97.47;17.73;;;;;;;6.61;71.66;100820.25;5049905;28;20532;-76
2023/12/20 04:54:06;;;;;;;103.88;23.98;;;;;;;6.55;71.90;100809.00;5050122;28;20481;-77
2023/12/20 04:56:32;;;;;;;86.38;20.35;;;;;;;6.65;71.66;100822.66;5050042;28;20025;-74
2023/12/20 04:58:57;;;;;;;156.05;28.92;;;;;;;6.57;71.86;100803.56;5055070;28;20068;-75
2023/12/20 05:01:23;;;;;;;74.15;24.35;;;;;;;6.71;71.34;100827.63;5053633;28;20549;-77
2023/12/20 05:03:48;;;;;;;208.43;34.50;;;;;;;6.55;71.65;100811.66;5049372;28;20032;-78
2023/12/20 05:06:14;;;;;;;90.70;27.08;;;;;;;6.50;71.92;100792.41;5049180;28;20083;-74
2023/12/20 05:08:40;;;;;;;81.38;28.45;;;;;;;6.58;71.80;100799.91;5064612;28;20044;-76
2023/12/20 05:11:06;;;;;;;103.75;27.50;;;;;;;6.68;71.44;100814.44;5066176;28;20420;-74
2023/12/20 05:13:31;;;;;;;87.47;28.15;;;;;;;6.60;72.02;100800.72;5065976;28;20717;-74
2023/12/20 05:15:57;;;;;;;48.20;16.25;;;;;;;6.57;72.18;100799.06;5046358;28;20033;-77
2023/12/20 05:18:23;;;;;;;152.80;56.90;;;;;;;6.67;72.67;100814.50;5055076;28;20059;-77
2023/12/20 05:20:50;;;;;;;96.63;25.13;;;;;;;6.67;72.62;100809.16;5066899;28;20435;-77
2023/12/20 05:23:15;;;;;;;66.90;22.70;;;;;;;6.53;72.55;100780.66;5066049;28;20048;-78
2023/12/20 05:25:41;;;;;;;117.35;27.15;;;;;;;6.65;72.15;100800.41;5066228;28;20578;-75
2023/12/20 05:28:06;;;;;;;93.13;25.15;;;;;;;6.83;72.40;100812.59;5066319;28;20389;-76
2023/12/20 05:30:32;;;;;;;119.47;24.20;;;;;;;6.82;72.31;100802.91;5066249;28;20028;-75
2023/12/20 05:32:57;;;;;;;68.95;17.90;;;;;;;6.94;72.46;100808.28;5066017;28;20659;-77
2023/12/20 05:35:23;;;;;;;77.35;21.33;;;;;;;6.97;71.52;100807.28;5066481;28;20527;-75
2023/12/20 05:37:49;;;;;;;73.72;18.60;;;;;;;6.97;71.54;100807.28;5066091;28;20028;-77
2023/12/20 05:40:15;;;;;;;85.53;19.25;;;;;;;6.97;71.11;100796.56;5053304;28;20040;-75
2023/12/20 05:42:40;;;;;;;55.45;18.13;;;;;;;7.03;71.33;100797.00;5049516;28;20021;-76
2023/12/20 05:45:06;;;;;;;83.05;25.33;;;;;;;6.98;70.75;100787.56;5049299;28;20025;-77
2023/12/20 05:47:31;;;;;;;96.55;25.88;;;;;;;7.08;71.52;100800.28;5049152;28;20436;-76
2023/12/20 05:49:57;;;;;;;133.18;32.63;;;;;;;6.98;71.18;100776.88;5050181;28;20045;-76
2023/12/20 05:52:22;;;;;;;113.65;27.50;;;;;;;6.94;70.48;100776.22;5049449;28;20494;-75
2023/12/20 05:54:48;;;;;;;106.85;38.38;;;;;;;7.11;70.36;100794.72;5048705;28;20131;-77
2023/12/20 05:57:14;;;;;;;95.32;28.42;;;;;;;7.19;70.69;100804.06;5048619;28;20021;-76
2023/12/20 05:59:39;;;;;;;98.50;23.75;;;;;;;7.07;70.75;100789.66;5048510;28;20063;-79
2023/12/20 06:02:05;;;;;;;84.53;21.02;;;;;;;7.20;70.50;100806.66;5048685;28;20047;-76
2023/12/20 06:04:31;;;;;;;84.38;22.85;;;;;;;7.06;70.79;100779.94;5047397;28;20033;-76
2023/12/20 06:06:57;;;;;;;115.00;20.73;;;;;;;7.15;70.35;100800.75;5048893;28;20021;-76
2023/12/20 06:09:22;;;;;;;73.93;18.45;;;;;;;7.18;71.20;100808.56;5048700;28;20045;-77
2023/12/20 06:11:48;;;;;;;111.25;24.63;;;;;;;7.10;71.15;100786.78;5048660;28;20029;-77
2023/12/20 06:14:13;;;;;;;85.88;20.05;;;;;;;7.08;71.60;100786.03;5049034;28;20069;-76
2023/12/20 06:16:39;;;;;;;78.28;25.10;;;;;;;7.28;71.53;100807.00;5048558;28;20028;-77
2023/12/20 06:19:04;;;;;;;91.82;20.05;;;;;;;7.30;70.70;100798.88;5049278;28;20614;-78
2023/12/20 06:21:30;;;;;;;61.50;17.40;;;;;;;7.41;70.96;100791.00;5048784;28;20029;-77
2023/12/20 06:23:55;;;;;;;92.75;19.02;;;;;;;7.40;71.17;100792.81;5049241;28;20037;-75
2023/12/20 06:26:21;;;;;;;79.53;18.50;;;;;;;7.50;70.95;100801.09;5045594;28;20512;-77
2023/12/20 06:28:46;;;;;;;49.03;16.15;;;;;;;7.59;70.73;100811.19;5048382;28;20128;-76
2023/12/20 06:31:12;;;;;;;106.75;22.50;;;;;;;7.68;70.77;100806.09;5047869;28;20469;-78
2023/12/20 06:33:40;;;;;;;132.98;24.58;;;;;;;7.74;70.75;100803.97;5048142;28;20129;-78
2023/12/20 06:36:06;;;;;;;46.75;19.92;;;;;;;7.83;71.60;100798.03;5048334;28;20025;-76
2023/12/20 06:38:31;;;;;;;128.60;24.95;;;;;;;7.77;70.81;100772.50;5050741;28;20079;-78
2023/12/20 06:40:58;;;;;;;132.70;23.77;;;;;;;8.00;71.01;100803.94;5051449;28;20025;-77
2023/12/20 06:43:24;;;;;;;138.40;28.42;;;;;;;8.15;71.27;100810.06;5048494;28;20049;-73
2023/12/20 06:45:49;;;;;;;107.05;31.45;;;;;;;8.19;70.98;100787.47;5048100;28;20079;-76
2023/12/20 06:48:15;;;;;;;54.58;20.67;;;;;;;8.25;70.42;100778.16;5047869;28;20031;-79
2023/12/20 06:50:40;;;;;;;63.35;19.15;;;;;;;8.43;70.10;100801.88;5048202;28;20029;-79
2023/12/20 06:53:06;;;;;;;65.22;17.85;;;;;;;8.51;70.25;100795.97;5048080;28;20017;-80
2023/12/20 06:55:37;;;;;;;93.32;23.05;;;;;;;8.60;70.72;100788.13;5047891;28;20500;-76
2023/12/20 06:58:03;;;;;;;51.42;20.80;;;;;;;8.75;70.25;100792.41;5047972;28;20021;-78
2023/12/20 07:00:28;;;;;;;70.25;23.02;;;;;;;8.92;70.22;100779.63;5048262;28;20040;-78
2023/12/20 07:02:54;;;;;;;36.13;18.08;;;;;;;8.98;70.09;100774.69;5048201;28;20585;-78
2023/12/20 07:05:20;;;;;;;44.28;16.40;;;;;;;9.12;70.07;100760.25;5047543;28;20116;-78
2023/12/20 07:07:46;;;;;;;53.83;17.60;;;;;;;9.29;69.79;100762.56;5047487;28;20032;-79
2023/12/20 07:10:13;;;;;;;83.35;19.35;;;;;;;9.41;69.35;100750.06;5046929;28;20056;-76
2023/12/20 07:12:38;;;;;;;61.40;21.40;;;;;;;9.59;69.30;100759.41;5047615;28;20032;-76
2023/12/20 07:15:05;;;;;;;67.25;18.00;;;;;;;9.73;68.68;100768.13;5047768;28;20037;-77
2023/12/20 07:17:33;;;;;;;49.40;17.30;;;;;;;9.82;68.29;100759.38;5028020;28;20025;-77
2023/12/20 07:19:58;;;;;;;49.15;17.83;;;;;;;9.97;67.57;100748.47;5028502;28;20168;-77
2023/12/20 07:22:24;;;;;;;67.95;18.10;;;;;;;10.05;67.13;100737.97;5028433;28;20077;-78
2023/12/20 07:24:52;;;;;;;61.42;21.45;;;;;;;10.29;66.83;100765.66;5033850;28;20044;-81
2023/12/20 07:27:17;;;;;;;61.35;22.45;;;;;;;10.31;66.78;100752.94;5050364;28;20465;-78
2023/12/20 07:29:43;;;;;;;49.80;24.08;;;;;;;10.49;66.14;100762.25;5053784;28;20033;-80
2023/12/20 07:32:08;;;;;;;30.17;18.38;;;;;;;10.48;65.58;100733.66;5047899;28;20029;-78
2023/12/20 07:34:34;;;;;;;45.45;19.35;;;;;;;10.70;65.21;100744.41;5047288;28;20451;-78
2023/12/20 07:36:59;;;;;;;57.72;21.75;;;;;;;10.76;64.53;100735.84;5047578;28;20103;-78
2023/12/20 07:39:25;;;;;;;50.58;21.38;;;;;;;10.90;64.08;100740.97;5064250;28;20198;-76
2023/12/20 07:41:50;;;;;;;43.20;19.63;;;;;;;11.01;63.56;100748.16;5064523;28;20036;-78
2023/12/20 07:44:16;;;;;;;52.33;21.35;;;;;;;11.10;62.94;100733.13;5064328;28;20036;-77
2023/12/20 07:46:41;;;;;;;49.58;18.42;;;;;;;11.25;63.03;100723.78;5064225;28;20063;-82
2023/12/20 07:49:08;;;;;;;48.17;19.08;;;;;;;11.31;61.67;100712.50;5064660;28;20091;-78
2023/12/20 07:51:34;;;;;;;43.50;17.08;;;;;;;11.40;60.50;100717.13;5064400;28;20032;-76
2023/12/20 07:53:59;;;;;;;49.53;18.27;;;;;;;11.64;60.17;100736.63;5064508;28;20041;-79
2023/12/20 07:56:25;;;;;;;56.50;18.52;;;;;;;11.73;59.90;100733.19;5064037;28;21126;-77
2023/12/20 07:58:50;;;;;;;61.50;17.08;;;;;;;11.56;58.75;100687.91;5064147;28;20150;-78
2023/12/20 08:01:17;;;;;;;47.85;17.35;;;;;;;11.85;59.07;100718.66;5063879;28;20063;-76
2023/12/20 08:03:42;;;;;;;66.55;16.83;;;;;;;12.05;58.39;100724.22;5064904;28;20114;-77
2023/12/20 08:06:07;;;;;;;34.15;15.77;;;;;;;12.12;58.29;100719.97;5064429;28;20507;-77
2023/12/20 08:08:33;;;;;;;68.30;15.63;;;;;;;12.25;57.76;100723.31;5064577;28;20024;-79
2023/12/20 08:11:00;;;;;;;93.18;18.23;;;;;;;12.39;57.42;100712.19;5054306;28;20556;-77
2023/12/20 08:13:26;;;;;;;45.47;15.20;;;;;;;12.46;56.95;100695.34;5047984;28;20028;-78
2023/12/20 08:15:52;;;;;;;34.47;12.93;;;;;;;12.57;57.09;100694.38;5049821;28;20041;-81
2023/12/20 08:18:17;;;;;;;24.05;12.65;;;;;;;12.75;56.29;100698.13;5052472;28;20029;-78
2023/12/20 08:20:43;;;;;;;21.30;13.95;;;;;;;12.66;55.96;100661.16;5047117;28;20044;-77
2023/12/20 08:23:08;;;;;;;35.72;13.65;;;;;;;13.03;55.66;100685.69;5047429;28;20068;-78
2023/12/20 08:25:34;;;;;;;69.95;16.08;;;;;;;13.17;54.68;100681.78;5047470;28;20048;-78
2023/12/20 08:27:59;;;;;;;30.60;11.57;;;;;;;13.26;54.44;100671.00;5047176;28;20517;-76
2023/12/20 08:30:25;;;;;;;57.00;14.60;;;;;;;13.41;53.82;100657.94;5047626;28;20037;-76
2023/12/20 08:32:52;;;;;;;22.70;9.60;;;;;;;13.62;52.92;100655.94;5047505;28;20072;-75
2023/12/20 08:35:18;;;;;;;30.17;9.85;;;;;;;13.84;51.91;100662.88;5047371;28;20041;-79
2023/12/20 08:37:44;;;;;;;44.78;13.30;;;;;;;13.93;52.03;100649.34;5047751;28;20041;-79
2023/12/20 08:40:10;;;;;;;33.55;9.82;;;;;;;14.00;51.75;100645.06;5047995;28;20040;-80
2023/12/20 08:42:35;;;;;;;90.07;16.45;;;;;;;14.24;51.52;100651.81;5046773;28;20071;-77
2023/12/20 08:45:01;;;;;;;59.08;13.02;;;;;;;14.37;51.12;100646.97;5046997;28;20037;-77
2023/12/20 08:47:27;;;;;;;87.78;14.23;;;;;;;14.45;50.80;100630.81;5047290;28;20048;-76
2023/12/20 08:49:58;;;;;;;42.95;11.60;;;;;;;14.63;50.62;100615.50;5046446;28;20120;-79
2023/12/20 08:52:23;;;;;;;37.20;10.82;;;;;;;14.78;50.26;100623.94;5049378;28;20059;-78
2023/12/20 08:54:51;;;;;;;50.08;11.85;;;;;;;14.85;49.68;100615.06;5050420;28;20025;-78
2023/12/20 08:57:20;;;;;;;55.97;11.80;;;;;;;15.04;49.42;100630.34;5049910;28;20127;-76
2023/12/20 08:59:46;;;;;;;28.70;8.85;;;;;;;15.01;49.28;100626.09;5050065;28;20057;-77
2023/12/20 09:02:11;;;;;;;395.88;43.72;;;;;;;15.05;49.29;100608.50;5050312;28;20076;-77
2023/12/20 09:04:37;;;;;;;79.78;13.68;;;;;;;15.17;49.70;100604.56;5051880;28;20067;-77
2023/12/20 09:07:02;;;;;;;87.72;12.68;;;;;;;15.12;49.40;100573.53;5055906;28;20029;-79
2023/12/20 09:09:28;;;;;;;68.93;15.07;;;;;;;15.19;49.36;100567.34;5060967;28;20021;-83
2023/12/20 09:11:53;;;;;;;129.38;18.25;;;;;;;15.47;49.54;100603.34;5049618;28;20029;-83
2023/12/20 09:14:19;;;;;;;22.98;9.68;;;;;;;15.47;49.03;100572.66;5050465;28;20106;-84
2023/12/20 09:16:44;;;;;;;43.47;11.63;;;;;;;15.57;49.33;100565.28;5050493;28;20059;-83
2023/12/20 09:19:10;;;;;;;91.75;14.32;;;;;;;15.58;49.24;100564.28;5049822;28;20515;-78
2023/12/20 09:21:35;;;;;;;33.58;10.07;;;;;;;15.67;49.08;100574.19;5049755;28;20037;-84
2023/12/20 09:24:01;;;;;;;40.20;10.02;;;;;;;15.57;49.15;100541.75;5051455;28;20046;-81
2023/12/20 09:26:26;;;;;;;105.05;17.70;;;;;;;15.55;48.86;100535.66;5049101;28;20041;-85
2023/12/20 09:28:52;;;;;;;58.85;12.57;;;;;;;15.66;48.64;100537.22;5050425;28;20112;-83
2023/12/20 09:31:17;;;;;;;30.55;8.75;;;;;;;15.77;48.52;100555.97;5048537;28;20029;-82
2023/12/20 09:33:43;;;;;;;33.30;9.82;;;;;;;15.81;48.33;100546.47;5048781;28;20099;-82
2023/12/20 09:36:08;;;;;;;62.65;11.15;;;;;;;15.89;48.35;100534.84;5049981;28;20025;-82
2023/12/20 09:38:34;;;;;;;67.65;16.67;;;;;;;15.70;47.55;100539.47;5049151;28;20040;-78
2023/12/20 09:41:02;;;;;;;97.65;14.98;;;;;;;15.72;48.42;100539.31;5048749;28;20039;-79
2023/12/20 09:43:29;;;;;;;90.55;13.05;;;;;;;15.67;48.63;100507.25;5049199;28;20036;-79
2023/12/20 09:46:02;;;;;;;56.85;13.30;;;;;;;15.86;48.70;100525.16;5049268;28;20029;-81
2023/12/20 09:48:28;;;;;;;48.63;12.07;;;;;;;15.82;48.37;100514.78;5049703;28;20047;-81
2023/12/20 09:50:54;;;;;;;59.25;11.93;;;;;;;15.82;48.58;100496.66;5050337;28;20106;-80
2023/12/20 09:53:23;;;;;;;54.60;11.90;;;;;;;15.71;48.09;100467.97;5050884;28;20031;-80
2023/12/20 09:55:49;;;;;;;62.28;11.98;;;;;;;15.81;47.82;100496.84;5065189;28;20055;-82
2023/12/20 09:58:15;;;;;;;49.20;9.60;;;;;;;15.61;47.46;100466.38;5066412;28;20021;-81
2023/12/20 10:00:40;;;;;;;57.33;12.73;;;;;;;15.62;47.70;100458.09;5047971;28;20071;-82
2023/12/20 10:03:07;;;;;;;40.10;11.23;;;;;;;15.66;47.84;100458.59;5047545;28;20083;-80
2023/12/20 10:05:33;;;;;;;54.22;12.90;;;;;;;15.76;47.19;100476.47;5048166;28;20042;-78
2023/12/20 10:08:00;;;;;;;59.70;13.75;;;;;;;15.71;47.04;100456.28;5047978;28;20124;-80
2023/12/20 10:10:26;;;;;;;117.75;20.40;;;;;;;15.75;47.12;100460.34;5047484;28;20032;-80
2023/12/20 10:13:10;;;;;;;128.40;17.25;;;;;;;15.77;47.13;100477.31;5048640;28;20086;-82
2023/12/20 10:15:37;;;;;;;41.20;10.52;;;;;;;15.51;47.01;100477.31;5049230;28;20032;-82
2023/12/20 10:18:03;;;;;;;46.70;10.95;;;;;;;15.40;47.42;100471.31;5049012;28;20025;-83
2023/12/20 10:20:32;;;;;;;38.60;12.23;;;;;;;15.32;47.72;100472.06;5048408;28;20029;-82
2023/12/20 10:22:58;;;;;;;26.70;9.35;;;;;;;15.44;48.30;100464.56;5048963;28;20031;-83
2023/12/20 10:25:25;;;;;;;39.05;9.20;;;;;;;15.24;48.35;100458.50;5048548;28;20063;-82
2023/12/20 10:28:11;;;;;;;78.20;12.55;;;;;;;15.13;48.62;100451.50;5048773;28;20053;-84
2023/12/20 10:30:37;;;;;;;36.55;11.95;;;;;;;15.06;48.92;100436.88;5048350;28;20082;-79
2023/12/20 10:33:03;;;;;;;110.10;14.30;;;;;;;15.01;49.36;100433.78;5049390;28;20029;-84
2023/12/20 10:35:28;;;;;;;51.55;10.82;;;;;;;15.18;50.23;100442.88;5049053;28;20024;-83
2023/12/20 10:37:58;;;;;;;28.67;9.10;;;;;;;15.24;50.71;100444.94;5049848;28;20084;-82
2023/12/20 10:40:29;;;;;;;77.53;11.52;;;;;;;15.20;51.42;100438.97;5050686;28;20040;-79
2023/12/20 10:42:56;;;;;;;45.15;11.85;;;;;;;15.15;51.55;100425.06;5048712;28;20028;-82
2023/12/20 10:45:23;;;;;;;60.88;11.18;;;;;;;15.17;52.25;100411.34;5069932;28;20055;-85
2023/12/20 10:47:50;;;;;;;79.88;14.93;;;;;;;15.31;52.39;100437.88;5069539;28;20041;-83
2023/12/20 10:50:15;;;;;;;53.55;13.57;;;;;;;15.24;52.45;100421.41;5048810;28;20090;-83
2023/12/20 10:52:42;;;;;;;44.47;12.75;;;;;;;15.10;51.98;100403.03;5049348;28;20033;-83
2023/12/20 10:55:08;;;;;;;171.50;23.65;;;;;;;15.22;52.05;100415.31;5048590;28;20068;-83
2023/12/20 10:57:36;;;;;;;45.45;10.60;;;;;;;15.19;51.92;100410.22;5048973;28;20104;-82
2023/12/20 11:00:05;;;;;;;18.77;7.47;;;;;;;15.21;51.58;100413.59;5048750;28;20033;-81
2023/12/20 11:02:39;;;;;;;50.13;11.88;;;;;;;15.23;51.44;100403.44;5049359;28;20524;-83
2023/12/20 11:05:19;;;;;;;86.50;13.85;;;;;;;15.11;51.08;100399.31;5046110;28;20048;-85
2023/12/20 11:07:50;;;;;;;101.22;15.50;;;;;;;15.27;50.72;100395.84;5048292;28;20021;-83